Time;durP1;ratioP1;P1;durP2;ratioP2;P2;SDS_P1;SDS_P2;PMS_P1;PMS_P2;Temp;Humidity;BMP_temperature;BMP_pressure;BME280_temperature;BME280_humidity;BME280_pressure;Samples;Min_cycle;Max_cycle;Signal;HPM_P1;HPM_P2
2020/12/20 00:04:20;;;;;;;;;26.50;22.75;;;;;;;;12286140;28;8931;-48
2020/12/20 00:10:23;;;;;;;;;22.25;18.25;;;;;;;;12288774;28;8928;-51
2020/12/20 00:16:28;;;;;;;;;21.25;19.75;;;;;;;;12285463;28;8869;-49
2020/12/20 00:22:37;;;;;;;;;19.25;16.75;;;;;;;;12286748;28;8849;-53
2020/12/20 00:28:39;;;;;;;;;20.00;18.00;;;;;;;;12286411;28;8858;-50
2020/12/20 00:34:40;;;;;;;;;22.50;19.25;;;;;;;;12285134;28;8861;-53
2020/12/20 00:40:42;;;;;;;;;20.75;18.75;;;;;;;;12269228;28;8878;-50
2020/12/20 00:46:44;;;;;;;;;22.25;22.25;;;;;;;;12284246;28;8835;-51
2020/12/20 00:52:55;;;;;;;;;30.25;23.75;;;;;;;;12272029;28;8839;-51
2020/12/20 00:58:56;;;;;;;;;33.25;23.75;;;;;;;;12284712;29;8858;-52
2020/12/20 01:04:58;;;;;;;;;29.00;25.00;;;;;;;;12266354;28;8862;-51
2020/12/20 01:10:59;;;;;;;;;34.00;30.00;;;;;;;;12286151;29;8874;-50
2020/12/20 01:17:04;;;;;;;;;31.75;27.00;;;;;;;;12266818;29;8847;-50
2020/12/20 01:23:16;;;;;;;;;32.50;29.25;;;;;;;;12276280;28;8882;-49
2020/12/20 01:29:18;;;;;;;;;26.50;22.00;;;;;;;;12275424;28;8998;-50
2020/12/20 01:35:21;;;;;;;;;39.50;27.00;;;;;;;;12275793;28;8878;-50
2020/12/20 01:41:24;;;;;;;;;27.25;23.75;;;;;;;;12276693;28;8871;-51
2020/12/20 01:47:30;;;;;;;;;34.00;27.50;;;;;;;;12283237;28;8863;-51
2020/12/20 01:53:45;;;;;;;;;34.00;29.25;;;;;;;;12284038;28;8874;-52
2020/12/20 01:59:47;;;;;;;;;32.50;28.00;;;;;;;;12258594;28;8843;-50
2020/12/20 02:05:51;;;;;;;;;30.25;28.00;;;;;;;;12282723;28;8878;-50
2020/12/20 02:12:00;;;;;;;;;31.25;27.75;;;;;;;;12274776;28;8843;-48
2020/12/20 02:18:02;;;;;;;;;32.25;26.25;;;;;;;;12281787;28;8882;-47
2020/12/20 02:24:08;;;;;;;;;40.25;33.50;;;;;;;;12282528;28;8882;-51
2020/12/20 02:30:21;;;;;;;;;35.75;29.75;;;;;;;;12280703;28;8854;-48
2020/12/20 02:36:23;;;;;;;;;33.00;29.75;;;;;;;;12273458;28;8882;-51
2020/12/20 02:42:25;;;;;;;;;35.50;33.00;;;;;;;;12281259;28;8859;-47
2020/12/20 02:48:29;;;;;;;;;32.75;27.50;;;;;;;;12272321;28;8871;-51
2020/12/20 02:54:30;;;;;;;;;28.75;24.50;;;;;;;;12273795;28;8866;-51
2020/12/20 03:00:36;;;;;;;;;32.50;29.50;;;;;;;;12279521;28;8924;-51
2020/12/20 03:06:39;;;;;;;;;34.75;26.25;;;;;;;;12281323;28;9131;-48
2020/12/20 03:12:43;;;;;;;;;25.00;21.75;;;;;;;;12280384;28;8859;-50
2020/12/20 03:18:45;;;;;;;;;29.00;28.00;;;;;;;;12279170;28;8870;-51
2020/12/20 03:24:47;;;;;;;;;27.75;24.25;;;;;;;;12264886;28;8887;-52
2020/12/20 03:31:07;;;;;;;;;28.25;23.50;;;;;;;;12287707;28;8875;-52
2020/12/20 03:37:37;;;;;;;;;23.50;21.25;;;;;;;;12262469;28;8870;-49
2020/12/20 03:43:47;;;;;;;;;29.00;24.75;;;;;;;;12262034;28;8851;-49
2020/12/20 03:49:49;;;;;;;;;29.50;24.75;;;;;;;;12270888;28;8898;-54
2020/12/20 03:55:52;;;;;;;;;34.00;27.50;;;;;;;;12269439;28;8866;-49
2020/12/20 04:01:53;;;;;;;;;27.25;25.00;;;;;;;;12286362;28;8847;-50
2020/12/20 04:07:55;;;;;;;;;28.50;25.75;;;;;;;;12270569;28;8859;-47
2020/12/20 04:13:57;;;;;;;;;31.75;28.25;;;;;;;;12269024;28;8887;-46
2020/12/20 04:20:00;;;;;;;;;29.25;27.00;;;;;;;;12270295;28;8847;-49
2020/12/20 04:26:27;;;;;;;;;35.75;34.25;;;;;;;;12268559;28;8862;-50
2020/12/20 04:32:41;;;;;;;;;32.25;25.00;;;;;;;;12269303;28;8954;-52
2020/12/20 04:38:44;;;;;;;;;35.25;30.75;;;;;;;;12268399;28;8855;-47
2020/12/20 04:44:47;;;;;;;;;25.50;19.75;;;;;;;;12259783;28;8871;-49
2020/12/20 04:50:51;;;;;;;;;36.25;31.50;;;;;;;;12269237;28;8867;-47
2020/12/20 04:56:53;;;;;;;;;35.25;27.00;;;;;;;;12251071;28;8873;-49
2020/12/20 05:03:06;;;;;;;;;33.50;30.00;;;;;;;;12267395;29;8863;-50
2020/12/20 05:09:09;;;;;;;;;36.50;29.00;;;;;;;;12266479;29;8878;-50
2020/12/20 05:15:30;;;;;;;;;35.50;33.25;;;;;;;;12283947;29;8867;-47
2020/12/20 05:21:52;;;;;;;;;41.25;29.00;;;;;;;;12260133;29;9017;-48
2020/12/20 05:28:22;;;;;;;;;39.00;27.00;;;;;;;;12251242;29;8980;-51
2020/12/20 05:34:33;;;;;;;;;31.75;30.00;;;;;;;;12267431;29;9678;-47
2020/12/20 05:40:35;;;;;;;;;34.50;32.00;;;;;;;;12266787;29;8866;-49
2020/12/20 05:46:43;;;;;;;;;39.75;35.75;;;;;;;;12268284;29;8890;-48
2020/12/20 05:53:05;;;;;;;;;50.50;37.75;;;;;;;;12265547;29;8850;-54
2020/12/20 05:59:12;;;;;;;;;33.25;30.00;;;;;;;;12278917;29;8872;-49
2020/12/20 06:05:13;;;;;;;;;33.50;29.75;;;;;;;;12282714;28;8862;-49
2020/12/20 06:11:23;;;;;;;;;34.75;27.25;;;;;;;;12285717;28;8850;-47
2020/12/20 06:17:27;;;;;;;;;33.75;30.00;;;;;;;;12274986;28;9659;-49
2020/12/20 06:23:33;;;;;;;;;34.25;28.50;;;;;;;;12283396;28;8883;-51
2020/12/20 06:29:35;;;;;;;;;39.00;34.75;;;;;;;;12291971;28;8973;-50
2020/12/20 06:35:36;;;;;;;;;39.00;32.25;;;;;;;;12290799;28;8867;-47
2020/12/20 06:41:40;;;;;;;;;39.75;35.25;;;;;;;;12291317;28;8843;-47
2020/12/20 06:47:43;;;;;;;;;34.25;32.25;;;;;;;;12291711;28;8866;-50
2020/12/20 06:53:45;;;;;;;;;40.75;33.50;;;;;;;;12289414;28;8867;-47
2020/12/20 06:59:46;;;;;;;;;29.75;27.75;;;;;;;;12283207;28;8866;-49
2020/12/20 07:05:53;;;;;;;;;37.00;26.50;;;;;;;;12289259;28;8854;-49
2020/12/20 07:11:54;;;;;;;;;29.25;28.25;;;;;;;;12288661;28;8862;-49
2020/12/20 07:17:55;;;;;;;;;32.25;26.50;;;;;;;;12289449;28;8870;-47
2020/12/20 07:24:17;;;;;;;;;35.75;33.00;;;;;;;;12287474;28;8854;-46
2020/12/20 07:30:19;;;;;;;;;39.25;35.25;;;;;;;;12289477;28;8862;-46
2020/12/20 07:36:21;;;;;;;;;32.75;32.25;;;;;;;;12287238;28;8881;-51
2020/12/20 07:42:23;;;;;;;;;41.00;34.25;;;;;;;;12289474;28;8870;-50
2020/12/20 07:48:25;;;;;;;;;37.75;34.50;;;;;;;;12287988;28;8847;-52
2020/12/20 07:54:26;;;;;;;;;42.50;35.50;;;;;;;;12287740;28;8873;-51
2020/12/20 08:00:28;;;;;;;;;43.75;38.75;;;;;;;;12289002;28;8881;-52
2020/12/20 08:06:30;;;;;;;;;43.00;36.25;;;;;;;;12285417;28;8979;-53
2020/12/20 08:12:32;;;;;;;;;42.75;37.25;;;;;;;;12286485;28;8850;-48
2020/12/20 08:18:34;;;;;;;;;39.50;34.00;;;;;;;;12262065;28;8980;-49
2020/12/20 08:24:38;;;;;;;;;47.75;38.75;;;;;;;;12285251;28;8867;-51
2020/12/20 08:30:39;;;;;;;;;49.25;42.00;;;;;;;;12287895;28;8870;-51
2020/12/20 08:36:46;;;;;;;;;50.50;41.75;;;;;;;;12285661;28;8866;-50
2020/12/20 08:42:51;;;;;;;;;57.75;46.00;;;;;;;;12278801;28;8875;-49
2020/12/20 08:48:52;;;;;;;;;61.75;44.75;;;;;;;;12285396;28;8855;-51
2020/12/20 08:54:55;;;;;;;;;55.75;47.25;;;;;;;;12284546;28;8997;-53
2020/12/20 09:00:56;;;;;;;;;51.25;43.75;;;;;;;;12287464;28;8855;-50
2020/12/20 09:07:03;;;;;;;;;54.50;44.50;;;;;;;;12284895;28;8874;-53
2020/12/20 09:13:06;;;;;;;;;49.25;41.25;;;;;;;;12264981;29;8843;-51
2020/12/20 09:19:15;;;;;;;;;50.00;44.25;;;;;;;;12281723;29;9606;-51
2020/12/20 09:25:31;;;;;;;;;46.75;41.50;;;;;;;;12282448;29;8914;-53
2020/12/20 09:31:33;;;;;;;;;50.75;44.00;;;;;;;;12284901;28;8862;-52
2020/12/20 09:37:41;;;;;;;;;49.25;40.50;;;;;;;;12283236;29;9017;-49
2020/12/20 09:43:44;;;;;;;;;48.25;41.00;;;;;;;;12286957;29;8865;-49
2020/12/20 09:49:46;;;;;;;;;48.25;40.50;;;;;;;;12292348;28;8878;-47
2020/12/20 09:55:47;;;;;;;;;44.50;38.75;;;;;;;;12260996;28;8863;-50
2020/12/20 10:01:48;;;;;;;;;43.50;36.50;;;;;;;;12293413;28;8886;-51
2020/12/20 10:07:50;;;;;;;;;49.50;42.50;;;;;;;;12290695;28;8889;-50
2020/12/20 10:13:51;;;;;;;;;50.25;38.25;;;;;;;;12291594;28;8855;-53
2020/12/20 10:19:53;;;;;;;;;44.00;34.50;;;;;;;;12291192;28;8863;-54
2020/12/20 10:25:54;;;;;;;;;33.75;29.00;;;;;;;;12291256;28;8881;-49
2020/12/20 10:31:55;;;;;;;;;40.00;39.50;;;;;;;;12292543;28;8874;-50
2020/12/20 10:37:57;;;;;;;;;39.00;34.75;;;;;;;;12291172;28;9643;-48
2020/12/20 10:43:59;;;;;;;;;36.25;35.25;;;;;;;;12292591;28;9291;-50
2020/12/20 10:50:00;;;;;;;;;46.25;38.25;;;;;;;;12290279;28;8858;-52
2020/12/20 10:56:01;;;;;;;;;44.50;38.00;;;;;;;;12290194;28;8838;-50
2020/12/20 11:02:04;;;;;;;;;47.25;39.75;;;;;;;;12290389;28;8835;-49
2020/12/20 11:08:05;;;;;;;;;46.25;40.50;;;;;;;;12289451;28;8859;-52
2020/12/20 11:14:07;;;;;;;;;41.25;39.00;;;;;;;;12291054;28;8870;-50
2020/12/20 11:20:09;;;;;;;;;53.75;45.00;;;;;;;;12289167;28;8879;-52
2020/12/20 11:26:14;;;;;;;;;57.25;49.00;;;;;;;;12289842;28;8859;-53
2020/12/20 11:32:16;;;;;;;;;49.50;43.75;;;;;;;;12289933;28;8857;-47
2020/12/20 11:38:18;;;;;;;;;65.25;52.50;;;;;;;;12289315;28;8846;-51
2020/12/20 11:44:21;;;;;;;;;54.75;45.25;;;;;;;;12289615;28;8882;-53
2020/12/20 11:50:22;;;;;;;;;50.25;42.50;;;;;;;;12287855;28;9612;-50
2020/12/20 11:56:26;;;;;;;;;45.00;40.25;;;;;;;;12287165;28;8885;-54
2020/12/20 12:02:27;;;;;;;;;54.75;43.75;;;;;;;;12288234;28;8948;-52
2020/12/20 12:08:29;;;;;;;;;53.75;41.25;;;;;;;;12278910;28;8881;-57
2020/12/20 12:14:30;;;;;;;;;51.50;45.00;;;;;;;;12288206;28;9616;-50
2020/12/20 12:20:31;;;;;;;;;57.00;45.75;;;;;;;;12270321;28;8851;-50
2020/12/20 12:26:33;;;;;;;;;58.50;48.50;;;;;;;;12286176;28;9486;-50
2020/12/20 12:32:35;;;;;;;;;52.75;43.75;;;;;;;;12286476;28;8850;-50
2020/12/20 12:38:36;;;;;;;;;40.75;33.50;;;;;;;;12284956;28;8870;-53
2020/12/20 12:44:41;;;;;;;;;41.50;34.25;;;;;;;;12286295;28;8842;-53
2020/12/20 12:50:43;;;;;;;;;49.75;41.50;;;;;;;;12284410;28;8851;-53
2020/12/20 12:56:46;;;;;;;;;65.50;49.50;;;;;;;;12283552;28;8858;-50
2020/12/20 13:02:47;;;;;;;;;77.75;63.25;;;;;;;;12280300;28;8843;-54
2020/12/20 13:08:49;;;;;;;;;63.00;50.75;;;;;;;;12283899;28;8891;-49
2020/12/20 13:14:51;;;;;;;;;69.00;54.00;;;;;;;;12285822;29;8857;-51
2020/12/20 13:20:52;;;;;;;;;58.50;45.75;;;;;;;;12287097;28;8855;-51
2020/12/20 13:26:54;;;;;;;;;64.50;50.75;;;;;;;;12292811;28;8859;-52
2020/12/20 13:32:55;;;;;;;;;50.25;44.25;;;;;;;;12295729;28;8897;-52
2020/12/20 13:38:57;;;;;;;;;52.50;43.75;;;;;;;;12275136;28;8882;-50
2020/12/20 13:44:59;;;;;;;;;56.00;46.75;;;;;;;;12293940;28;8842;-57
2020/12/20 13:51:00;;;;;;;;;54.25;44.75;;;;;;;;12292396;28;8855;-53
2020/12/20 13:57:01;;;;;;;;;56.75;46.75;;;;;;;;12291881;28;8847;-54
2020/12/20 14:03:06;;;;;;;;;53.75;45.25;;;;;;;;12293079;28;8863;-55
2020/12/20 14:09:07;;;;;;;;;68.75;55.50;;;;;;;;12292098;28;8850;-51
2020/12/20 14:15:08;;;;;;;;;53.50;46.00;;;;;;;;12292998;28;8980;-54
2020/12/20 14:21:10;;;;;;;;;58.00;47.50;;;;;;;;12292191;28;8994;-52
2020/12/20 14:27:14;;;;;;;;;60.25;48.25;;;;;;;;12290939;28;8859;-51
2020/12/20 14:33:15;;;;;;;;;54.25;47.00;;;;;;;;12292556;28;8905;-54
2020/12/20 14:39:17;;;;;;;;;51.50;47.00;;;;;;;;12291430;28;8967;-56
2020/12/20 14:45:19;;;;;;;;;60.50;48.50;;;;;;;;12274940;28;8877;-53
2020/12/20 14:51:22;;;;;;;;;70.50;54.25;;;;;;;;12290456;28;8878;-48
2020/12/20 14:57:23;;;;;;;;;57.50;46.25;;;;;;;;12289560;28;8855;-50
2020/12/20 15:03:24;;;;;;;;;109.33;93.67;;;;;;;;12291645;28;9605;-52
2020/12/20 15:09:26;;;;;;;;;71.50;55.00;;;;;;;;12288856;28;8981;-53
2020/12/20 15:15:28;;;;;;;;;72.25;56.50;;;;;;;;12289643;28;8846;-50
2020/12/20 15:21:29;;;;;;;;;76.00;56.75;;;;;;;;12289008;28;8871;-53
2020/12/20 15:27:30;;;;;;;;;57.00;46.75;;;;;;;;12288975;28;8843;-53
2020/12/20 15:33:35;;;;;;;;;68.00;54.75;;;;;;;;12289959;28;8913;-55
2020/12/20 15:39:56;;;;;;;;;66.00;48.75;;;;;;;;12275264;28;8835;-54
2020/12/20 15:45:57;;;;;;;;;72.50;55.75;;;;;;;;12288705;28;9427;-52
2020/12/20 15:51:59;;;;;;;;;52.50;42.25;;;;;;;;12287897;28;8854;-52
2020/12/20 15:58:00;;;;;;;;;70.25;55.25;;;;;;;;12288393;28;8850;-54
2020/12/20 16:04:01;;;;;;;;;62.00;49.50;;;;;;;;12271410;28;8878;-53
2020/12/20 16:10:04;;;;;;;;;71.00;54.75;;;;;;;;12287767;28;8858;-53
2020/12/20 16:16:06;;;;;;;;;77.50;61.50;;;;;;;;12288764;28;8843;-50
2020/12/20 16:22:07;;;;;;;;;66.00;52.75;;;;;;;;12286215;28;8866;-51
2020/12/20 16:28:08;;;;;;;;;64.50;50.75;;;;;;;;12286816;28;8867;-58
2020/12/20 16:34:16;;;;;;;;;62.25;49.50;;;;;;;;12287423;28;8870;-53
2020/12/20 16:40:18;;;;;;;;;67.75;52.75;;;;;;;;12285593;28;8905;-56
2020/12/20 16:46:19;;;;;;;;;62.50;52.00;;;;;;;;12287081;28;8917;-51
2020/12/20 16:52:21;;;;;;;;;70.25;56.25;;;;;;;;12284185;28;8839;-53
2020/12/20 16:58:25;;;;;;;;;64.50;51.00;;;;;;;;12285185;28;8863;-54
2020/12/20 17:04:47;;;;;;;;;65.25;51.25;;;;;;;;12284643;28;8952;-53
2020/12/20 17:10:53;;;;;;;;;76.50;56.75;;;;;;;;12277032;28;8859;-55
2020/12/20 17:17:00;;;;;;;;;70.50;55.00;;;;;;;;12286110;29;9616;-53
2020/12/20 17:23:06;;;;;;;;;73.50;56.50;;;;;;;;12284044;29;8850;-53
2020/12/20 17:29:12;;;;;;;;;77.00;62.00;;;;;;;;12285484;29;8958;-48
2020/12/20 17:35:18;;;;;;;;;74.25;58.00;;;;;;;;12284301;29;8858;-51
2020/12/20 17:41:27;;;;;;;;;68.50;55.75;;;;;;;;12283852;29;8858;-53
2020/12/20 17:47:35;;;;;;;;;76.00;59.25;;;;;;;;12286357;29;8862;-54
2020/12/20 17:53:41;;;;;;;;;78.75;58.00;;;;;;;;12284067;29;9670;-50
2020/12/20 17:59:43;;;;;;;;;73.75;59.25;;;;;;;;12268231;29;8871;-52
2020/12/20 18:05:44;;;;;;;;;77.00;59.75;;;;;;;;12281178;28;8855;-50
2020/12/20 18:11:45;;;;;;;;;79.50;62.75;;;;;;;;12292387;28;8882;-55
2020/12/20 18:17:47;;;;;;;;;83.50;65.75;;;;;;;;12293612;28;9040;-54
2020/12/20 18:23:48;;;;;;;;;80.50;64.25;;;;;;;;12283358;28;8952;-54
2020/12/20 18:29:50;;;;;;;;;70.50;55.75;;;;;;;;12293313;28;8985;-50
2020/12/20 18:35:51;;;;;;;;;74.25;58.50;;;;;;;;12289914;28;8978;-50
2020/12/20 18:41:53;;;;;;;;;66.75;54.25;;;;;;;;12290487;28;8865;-54
2020/12/20 18:47:55;;;;;;;;;78.50;58.50;;;;;;;;12292230;28;8863;-50
2020/12/20 18:53:56;;;;;;;;;70.75;57.00;;;;;;;;12290090;28;8847;-52
2020/12/20 18:59:58;;;;;;;;;72.50;56.75;;;;;;;;12291444;28;8881;-51
2020/12/20 19:05:59;;;;;;;;;63.75;51.50;;;;;;;;12289449;28;8866;-54
2020/12/20 19:12:00;;;;;;;;;75.00;58.25;;;;;;;;12289782;28;8839;-51
2020/12/20 19:18:02;;;;;;;;;59.50;50.00;;;;;;;;12289504;28;8862;-54
2020/12/20 19:24:05;;;;;;;;;67.25;51.75;;;;;;;;12288053;28;8866;-50
2020/12/20 19:30:07;;;;;;;;;62.75;47.75;;;;;;;;12290164;28;8847;-51
2020/12/20 19:36:09;;;;;;;;;71.25;54.00;;;;;;;;12287661;28;8851;-52
2020/12/20 19:42:11;;;;;;;;;71.00;55.50;;;;;;;;12287992;28;8846;-49
2020/12/20 19:48:12;;;;;;;;;65.00;51.75;;;;;;;;12288416;28;8846;-52
2020/12/20 19:54:15;;;;;;;;;67.50;53.25;;;;;;;;12286623;28;8839;-50
2020/12/20 20:00:16;;;;;;;;;71.50;57.25;;;;;;;;12288006;28;8921;-53
2020/12/20 20:06:21;;;;;;;;;77.75;57.00;;;;;;;;12286116;28;9087;-52
2020/12/20 20:12:23;;;;;;;;;72.50;58.25;;;;;;;;12286579;28;8843;-50
2020/12/20 20:18:24;;;;;;;;;63.25;53.75;;;;;;;;12288042;28;8854;-51
2020/12/20 20:24:27;;;;;;;;;71.00;56.75;;;;;;;;12275911;28;9008;-52
2020/12/20 20:30:29;;;;;;;;;75.50;56.75;;;;;;;;12262398;28;8842;-50
2020/12/20 20:36:48;;;;;;;;;71.25;59.50;;;;;;;;12284249;28;8863;-52
2020/12/20 20:42:52;;;;;;;;;79.00;59.50;;;;;;;;12285598;28;8870;-49
2020/12/20 20:48:54;;;;;;;;;75.25;57.25;;;;;;;;12286363;28;9628;-52
2020/12/20 20:54:57;;;;;;;;;77.25;56.00;;;;;;;;12284430;28;8897;-51
2020/12/20 21:00:58;;;;;;;;;71.00;54.75;;;;;;;;12285317;28;8851;-50
2020/12/20 21:07:00;;;;;;;;;71.75;55.25;;;;;;;;12284665;28;8887;-54
2020/12/20 21:13:02;;;;;;;;;69.00;55.75;;;;;;;;12260537;29;8847;-54
2020/12/20 21:19:04;;;;;;;;;61.75;49.75;;;;;;;;12285989;29;8862;-51
2020/12/20 21:25:05;;;;;;;;;71.25;57.75;;;;;;;;12284700;29;8843;-53
2020/12/20 21:31:07;;;;;;;;;59.00;49.00;;;;;;;;12285342;29;8843;-51
2020/12/20 21:37:10;;;;;;;;;69.00;55.25;;;;;;;;12284029;29;8863;-52
2020/12/20 21:43:11;;;;;;;;;73.75;56.00;;;;;;;;12288663;28;8866;-57
2020/12/20 21:49:13;;;;;;;;;72.25;54.25;;;;;;;;12294366;28;8863;-49
2020/12/20 21:55:15;;;;;;;;;71.00;56.50;;;;;;;;12292916;28;8855;-53
2020/12/20 22:01:17;;;;;;;;;75.75;58.00;;;;;;;;12293877;28;8866;-48
2020/12/20 22:07:19;;;;;;;;;70.25;55.25;;;;;;;;12271504;28;8889;-50
2020/12/20 22:13:20;;;;;;;;;73.25;57.75;;;;;;;;12291766;28;8867;-52
2020/12/20 22:19:22;;;;;;;;;63.25;52.50;;;;;;;;12291955;28;8881;-53
2020/12/20 22:25:25;;;;;;;;;72.75;56.00;;;;;;;;12291052;28;8839;-52
2020/12/20 22:31:26;;;;;;;;;68.75;55.50;;;;;;;;12292699;28;8839;-50
2020/12/20 22:37:30;;;;;;;;;62.75;50.75;;;;;;;;12290386;28;9604;-49
2020/12/20 22:43:31;;;;;;;;;69.25;54.25;;;;;;;;12290706;28;8866;-50
2020/12/20 22:49:32;;;;;;;;;72.00;56.50;;;;;;;;12266436;28;8866;-50
2020/12/20 22:55:34;;;;;;;;;67.50;55.00;;;;;;;;12288790;28;8905;-52
2020/12/20 23:01:35;;;;;;;;;71.25;56.75;;;;;;;;12290745;28;8854;-51
2020/12/20 23:07:38;;;;;;;;;69.25;56.50;;;;;;;;12288418;28;8862;-50
2020/12/20 23:13:39;;;;;;;;;67.50;53.25;;;;;;;;12289740;28;8839;-51
2020/12/20 23:19:41;;;;;;;;;72.50;58.00;;;;;;;;12289120;28;8846;-51
2020/12/20 23:25:43;;;;;;;;;66.75;54.75;;;;;;;;12288110;28;8851;-52
2020/12/20 23:31:45;;;;;;;;;67.50;53.50;;;;;;;;12290446;28;8855;-51
2020/12/20 23:37:46;;;;;;;;;74.00;58.25;;;;;;;;12288485;28;8887;-51
2020/12/20 23:43:49;;;;;;;;;68.75;52.25;;;;;;;;12288706;28;8861;-52
2020/12/20 23:49:51;;;;;;;;;75.25;56.75;;;;;;;;12282143;28;8870;-52
2020/12/20 23:55:52;;;;;;;;;68.00;56.00;;;;;;;;12288299;28;8889;-50
